Terminal Aerodrome Forecast
Issued by NWS Bismarck, ND

Home | Current Version | Previous Version | Graphics & Text | Print | Product List | Glossary On
Versions: 1 2 3 4 5 6 7 8 9 10 11 12 13 14 15 16
901
FTUS43 KBIS 071847 AAA
TAFISN
TAF AMD
KISN 071847Z 0719/0818 32032G43KT P6SM SCT035
     FM080400 31019G26KT P6SM SCT060
     FM081200 32012KT P6SM SCT150=

USA.gov is the U.S. government's official web portal to all federal, state and local government web resources and services.